Barrackville, WV (26559)

7:59 AM EDT on July 28, 2016 (GMT -0400)
East Fairmont | | Change Station

Elev 1004 ft 39.48 °N, 80.13 °W | Updated 4 minutes ago

Mostly Cloudy
Mostly Cloudy
73.9 °F
Feels Like 71 °F
N
2.2
Wind Variable Wind from WNW

Today
High -- | Low -- °F
--% Chance of Precip.
Yesterday
High -- | Low -- °F
Precip. -- in
Pressure 29.91 in
Visibility 8.0 miles
Clouds Few 1900 ft
Mostly Cloudy 2300 ft
Mostly Cloudy 2800 ft
Heat Index 71 °F
Dew Point 72 °F
Humidity 93%
Rainfall 0.02 in
Snow Depth Not available.
6:17 AM 8:36 PM
Waning Crescent, 33% visible
METAR KCKB 281153Z 20004KT 8SM FEW019 BKN023 BKN028 24/22 A2996 RMK AO2 RAB1059E18 SLP127 P0000 60000 T02390222 10239 20222 53002
Pressure 29.91 in
Visibility 8.0 miles
Clouds Few 1900 ft
Mostly Cloudy 2300 ft
Mostly Cloudy 2800 ft
Heat Index 71 °F
Dew Point 72 °F
Humidity 93%
Rainfall 0.02 in
Snow Depth Not available.
6:17 AM 8:36 PM
Waning Crescent, 33% visible
METAR KCKB 281153Z 20004KT 8SM FEW019 BKN023 BKN028 24/22 A2996 RMK AO2 RAB1059E18 SLP127 P0000 60000 T02390222 10239 20222 53002

10-Day Weather Forecast

Almanac

Astronomy

Jul. 28, 2016 Rise Set
Actual Time
Civil Twilight
Nautical Twilight
Astronomical Twilight
Moon
Length of Visible Light
Length of Day
Tomorrow will be .
, % of the Moon is Illuminated

Today's Extremes

State Highs State Lows

Community

WunderPhotos

Upload Photos

1,928,096 photos uploaded!

WunderBlog® & News

Nearby

Air Quality

  Air Quality AQ Index Pollutant
Not available.

Snow Depth

Station Depth Elevation

Earthquake Activity

City Distance Mag. Time & Date
Minimum magnitude displayed is 2.5.

Coastal Water Temperatures

Place Temperature

Stations

Nearby Weather Stations

Station Location Temp. Windchill Dew Point Humidity Wind Precip. Elev Updated Type
                   

Watches & Warnings

There are currently no watches in effect.